createdAt,value
2017-10-08T00:00:39.658Z,936.94
2017-10-08T00:01:39.657Z,936.93
2017-10-08T00:02:39.660Z,936.93
2017-10-08T00:03:39.663Z,936.97
2017-10-08T00:04:39.657Z,937.03
2017-10-08T00:05:39.660Z,937.05
2017-10-08T00:06:39.660Z,937.07
2017-10-08T00:07:39.660Z,937.06
2017-10-08T00:08:39.661Z,937.07
2017-10-08T00:09:39.659Z,937.03
2017-10-08T00:10:39.662Z,937.04
2017-10-08T00:11:39.660Z,936.99
2017-10-08T00:12:39.661Z,936.98
2017-10-08T00:13:39.961Z,936.99
2017-10-08T00:14:39.661Z,937.04
2017-10-08T00:15:39.662Z,936.97
2017-10-08T00:16:39.664Z,937.00
2017-10-08T00:17:39.664Z,937.05
2017-10-08T00:18:39.666Z,937.03
2017-10-08T00:19:39.665Z,937.02
2017-10-08T00:20:39.665Z,937.01
2017-10-08T00:21:39.665Z,937.02
2017-10-08T00:22:39.665Z,936.99
2017-10-08T00:23:39.668Z,936.96
2017-10-08T00:24:39.665Z,936.95
2017-10-08T00:25:39.667Z,937.07
2017-10-08T00:26:39.667Z,937.01
2017-10-08T00:27:39.666Z,937.03
2017-10-08T00:28:39.667Z,937.08
2017-10-08T00:29:39.668Z,937.01
2017-10-08T00:30:39.669Z,936.92
2017-10-08T00:31:39.668Z,936.92
2017-10-08T00:32:39.668Z,937.01
2017-10-08T00:33:39.669Z,936.92
2017-10-08T00:34:39.670Z,936.84
2017-10-08T00:35:39.669Z,936.85
2017-10-08T00:36:39.670Z,936.78
2017-10-08T00:37:39.670Z,936.83
2017-10-08T00:38:39.670Z,936.84
2017-10-08T00:39:39.672Z,936.86
2017-10-08T00:40:39.670Z,936.86
2017-10-08T00:41:39.671Z,936.86
2017-10-08T00:42:39.671Z,936.78
2017-10-08T00:43:39.672Z,936.73
2017-10-08T00:44:39.673Z,936.73
2017-10-08T00:45:39.675Z,936.60
2017-10-08T00:46:39.673Z,936.68
2017-10-08T00:47:39.676Z,936.74
2017-10-08T00:48:39.672Z,936.67
2017-10-08T00:49:39.673Z,936.67
2017-10-08T00:50:39.675Z,936.71
2017-10-08T00:51:39.674Z,936.69
2017-10-08T00:52:39.675Z,936.70
2017-10-08T00:53:39.674Z,936.58
2017-10-08T00:54:39.676Z,936.60
2017-10-08T00:55:39.674Z,936.63
2017-10-08T00:56:39.674Z,936.49
2017-10-08T00:57:39.679Z,936.49
2017-10-08T00:58:39.676Z,936.48
2017-10-08T00:59:39.675Z,936.45
2017-10-08T01:00:39.677Z,936.48
2017-10-08T01:01:39.677Z,936.36
2017-10-08T01:02:39.678Z,936.40
2017-10-08T01:03:39.681Z,936.26
2017-10-08T01:04:39.678Z,936.32
2017-10-08T01:05:39.679Z,936.37
2017-10-08T01:06:39.680Z,936.43
2017-10-08T01:07:39.678Z,936.42
2017-10-08T01:08:39.679Z,936.43
2017-10-08T01:09:39.680Z,936.43
2017-10-08T01:10:39.681Z,936.41
2017-10-08T01:11:39.679Z,936.35
2017-10-08T01:12:39.680Z,936.41
2017-10-08T01:13:39.682Z,936.38
2017-10-08T01:14:39.682Z,936.47
2017-10-08T01:15:39.682Z,936.44
2017-10-08T01:16:39.682Z,936.33
2017-10-08T01:17:39.682Z,936.38
2017-10-08T01:18:39.684Z,936.43
2017-10-08T01:19:39.682Z,936.43
2017-10-08T01:20:39.684Z,936.39
2017-10-08T01:21:39.684Z,936.41
2017-10-08T01:22:39.685Z,936.37
2017-10-08T01:23:39.684Z,936.37
2017-10-08T01:24:39.686Z,936.38
2017-10-08T01:25:39.687Z,936.38
2017-10-08T01:26:39.687Z,936.34
2017-10-08T01:27:39.686Z,936.39
2017-10-08T01:28:39.688Z,936.37
2017-10-08T01:29:39.687Z,936.37
2017-10-08T01:30:39.688Z,936.41
2017-10-08T01:31:39.688Z,936.44
2017-10-08T01:32:39.688Z,936.46
2017-10-08T01:33:39.690Z,936.44
2017-10-08T01:34:39.690Z,936.53
2017-10-08T01:35:39.688Z,936.53
2017-10-08T01:36:39.689Z,936.60
2017-10-08T01:37:39.691Z,936.52
2017-10-08T01:38:39.692Z,936.58
2017-10-08T01:39:39.692Z,936.58
2017-10-08T01:40:39.693Z,936.62
2017-10-08T01:41:39.693Z,936.61
2017-10-08T01:42:39.694Z,936.58
2017-10-08T01:43:39.693Z,936.60
2017-10-08T01:44:39.694Z,936.63
2017-10-08T01:45:39.694Z,936.65
2017-10-08T01:46:39.696Z,936.63
2017-10-08T01:47:39.695Z,936.70
2017-10-08T01:48:39.696Z,936.63
2017-10-08T01:49:39.697Z,936.67
2017-10-08T01:50:39.697Z,936.70
2017-10-08T01:51:39.696Z,936.67
2017-10-08T01:52:39.697Z,936.62
2017-10-08T01:53:39.697Z,936.68
2017-10-08T01:54:39.698Z,936.78
2017-10-08T01:55:39.697Z,936.78
2017-10-08T01:56:39.699Z,936.79
2017-10-08T01:57:39.698Z,936.86
2017-10-08T01:58:39.698Z,936.86
2017-10-08T01:59:39.698Z,936.87
2017-10-08T02:00:39.700Z,936.79
2017-10-08T02:01:39.699Z,936.83
2017-10-08T02:02:39.701Z,936.86
2017-10-08T02:03:39.699Z,936.86
2017-10-08T02:04:39.700Z,936.76
2017-10-08T02:05:39.701Z,936.85
2017-10-08T02:06:39.700Z,936.82
2017-10-08T02:07:39.700Z,936.81
2017-10-08T02:08:39.701Z,936.79
2017-10-08T02:09:39.700Z,936.83
2017-10-08T02:10:39.699Z,936.85
2017-10-08T02:11:39.699Z,936.78
2017-10-08T02:12:39.699Z,936.85
2017-10-08T02:13:39.699Z,936.79
2017-10-08T02:14:39.699Z,936.77
2017-10-08T02:15:39.699Z,936.78
2017-10-08T02:16:39.699Z,936.77
2017-10-08T02:17:39.698Z,936.81
2017-10-08T02:18:39.700Z,936.80
2017-10-08T02:19:39.698Z,936.78
2017-10-08T02:20:39.698Z,936.85
2017-10-08T02:21:39.698Z,936.82
2017-10-08T02:22:39.698Z,936.81
2017-10-08T02:23:39.697Z,937.00
2017-10-08T02:24:39.698Z,936.90
2017-10-08T02:25:39.697Z,936.95
2017-10-08T02:26:39.699Z,936.96
2017-10-08T02:27:39.698Z,936.99
2017-10-08T02:28:39.697Z,937.04
2017-10-08T02:29:39.697Z,937.06
2017-10-08T02:30:39.698Z,937.06
2017-10-08T02:31:39.694Z,937.07
2017-10-08T02:32:39.696Z,937.12
2017-10-08T02:33:39.696Z,937.10
2017-10-08T02:34:39.694Z,937.14
2017-10-08T02:35:39.695Z,937.17
2017-10-08T02:36:39.694Z,937.17
2017-10-08T02:37:39.694Z,937.21
2017-10-08T02:38:39.693Z,937.21
2017-10-08T02:39:39.694Z,937.21
2017-10-08T02:40:39.692Z,937.24
2017-10-08T02:41:39.692Z,937.26
2017-10-08T02:42:39.691Z,937.27
2017-10-08T02:43:39.690Z,937.29
2017-10-08T02:44:39.691Z,937.29
2017-10-08T02:45:39.691Z,937.32
2017-10-08T02:46:39.690Z,937.27
2017-10-08T02:47:39.690Z,937.26
2017-10-08T02:48:39.690Z,937.26
2017-10-08T02:49:39.688Z,937.25
2017-10-08T02:50:39.689Z,937.31
2017-10-08T02:51:39.688Z,937.23
2017-10-08T02:52:39.686Z,937.23
2017-10-08T02:53:39.687Z,937.19
2017-10-08T02:54:39.686Z,937.23
2017-10-08T02:55:39.685Z,937.20
2017-10-08T02:56:39.686Z,937.21
2017-10-08T02:57:39.685Z,937.19
2017-10-08T02:58:39.685Z,937.22
2017-10-08T02:59:39.682Z,937.22
2017-10-08T03:00:39.683Z,937.25
2017-10-08T03:01:39.682Z,937.23
2017-10-08T03:02:39.681Z,937.25
2017-10-08T03:03:39.681Z,937.21
2017-10-08T03:04:39.680Z,937.19
2017-10-08T03:05:39.680Z,937.15
2017-10-08T03:06:39.682Z,937.16
2017-10-08T03:07:39.679Z,937.17
2017-10-08T03:08:39.679Z,937.17
2017-10-08T03:09:39.679Z,937.13
2017-10-08T03:10:39.678Z,937.09
2017-10-08T03:11:39.678Z,937.09
2017-10-08T03:12:39.677Z,937.04
2017-10-08T03:13:39.675Z,937.05
2017-10-08T03:14:39.676Z,937.09
2017-10-08T03:15:39.675Z,937.04
2017-10-08T03:16:39.674Z,937.05
2017-10-08T03:17:39.673Z,937.05
2017-10-08T03:18:39.675Z,937.05
2017-10-08T03:19:39.670Z,937.04
2017-10-08T03:20:39.670Z,937.01
2017-10-08T03:21:39.671Z,937.04
2017-10-08T03:22:39.671Z,937.02
2017-10-08T03:23:39.669Z,937.00
2017-10-08T03:24:39.669Z,937.01
2017-10-08T03:25:39.668Z,937.03
2017-10-08T03:26:39.669Z,937.05
2017-10-08T03:27:39.666Z,937.03
2017-10-08T03:28:39.666Z,937.00
2017-10-08T03:29:39.665Z,936.98
2017-10-08T03:30:39.666Z,936.97
2017-10-08T03:31:39.663Z,936.99
2017-10-08T03:32:39.664Z,936.94
2017-10-08T03:33:39.663Z,936.94
2017-10-08T03:34:39.663Z,936.97
2017-10-08T03:35:39.662Z,936.95
2017-10-08T03:36:39.662Z,936.96
2017-10-08T03:37:39.661Z,937.02
2017-10-08T03:38:39.660Z,937.02
2017-10-08T03:39:39.660Z,937.06
2017-10-08T03:40:39.660Z,937.11
2017-10-08T03:41:39.660Z,937.10
2017-10-08T03:42:39.659Z,937.11
2017-10-08T03:43:39.657Z,937.09
2017-10-08T03:44:39.665Z,937.08
2017-10-08T03:45:39.657Z,937.13
2017-10-08T03:46:39.660Z,937.12
2017-10-08T03:47:39.655Z,937.11
2017-10-08T03:48:39.656Z,937.11
2017-10-08T03:49:39.654Z,937.16
2017-10-08T03:50:39.654Z,937.18
2017-10-08T03:51:39.654Z,937.13
2017-10-08T03:52:39.652Z,937.09
2017-10-08T03:53:39.654Z,937.10
2017-10-08T03:54:39.656Z,937.07
2017-10-08T03:55:39.652Z,937.09
2017-10-08T03:56:39.652Z,937.06
2017-10-08T03:57:39.652Z,936.98
2017-10-08T03:58:39.651Z,936.98
2017-10-08T03:59:39.651Z,936.96
2017-10-08T04:00:39.650Z,936.95
2017-10-08T04:01:39.650Z,936.93
2017-10-08T04:02:39.650Z,937.00
2017-10-08T04:03:39.649Z,936.97
2017-10-08T04:04:39.648Z,937.01
2017-10-08T04:05:39.647Z,936.98
2017-10-08T04:06:39.647Z,936.93
2017-10-08T04:07:39.646Z,937.00
2017-10-08T04:08:39.646Z,937.01
2017-10-08T04:09:39.648Z,937.02
2017-10-08T04:10:39.645Z,936.98
2017-10-08T04:11:39.644Z,936.96
2017-10-08T04:12:39.644Z,936.94
2017-10-08T04:13:39.644Z,936.94
2017-10-08T04:14:39.643Z,936.93
2017-10-08T04:15:39.642Z,936.92
2017-10-08T04:16:39.641Z,936.96
2017-10-08T04:17:39.641Z,937.00
2017-10-08T04:18:39.640Z,936.98
2017-10-08T04:19:39.640Z,936.97
2017-10-08T04:20:39.638Z,936.96
2017-10-08T04:21:39.638Z,936.98
2017-10-08T04:22:39.637Z,936.97
2017-10-08T04:23:39.639Z,937.02
2017-10-08T04:24:39.637Z,936.98
2017-10-08T04:25:39.635Z,936.96
2017-10-08T04:26:39.635Z,937.02
2017-10-08T04:27:39.634Z,936.98
2017-10-08T04:28:39.634Z,936.97
2017-10-08T04:29:39.634Z,936.96
2017-10-08T04:30:39.633Z,936.97
2017-10-08T04:31:39.631Z,936.98
2017-10-08T04:32:39.631Z,936.96
2017-10-08T04:33:39.632Z,937.00
2017-10-08T04:34:39.630Z,937.01
2017-10-08T04:35:39.630Z,936.99
2017-10-08T04:36:39.628Z,936.99
2017-10-08T04:37:39.628Z,937.01
2017-10-08T04:38:39.628Z,936.98
2017-10-08T04:39:39.624Z,937.00
2017-10-08T04:40:39.626Z,937.00
2017-10-08T04:41:39.624Z,937.02
2017-10-08T04:42:39.625Z,937.06
2017-10-08T04:43:39.623Z,937.00
2017-10-08T04:44:39.622Z,936.96
2017-10-08T04:45:39.622Z,936.87
2017-10-08T04:46:39.621Z,936.91
2017-10-08T04:47:39.625Z,936.95
2017-10-08T04:48:39.620Z,936.85
2017-10-08T04:49:39.619Z,936.77
2017-10-08T04:50:39.618Z,936.87
2017-10-08T04:51:39.620Z,936.88
2017-10-08T04:52:39.616Z,936.80
2017-10-08T04:53:39.615Z,936.74
2017-10-08T04:54:39.616Z,936.72
2017-10-08T04:55:39.614Z,936.73
2017-10-08T04:56:39.613Z,936.72
2017-10-08T04:57:39.614Z,936.71
2017-10-08T04:58:39.614Z,936.69
2017-10-08T04:59:39.612Z,936.75
2017-10-08T05:00:39.611Z,936.78
2017-10-08T05:01:39.611Z,936.77
2017-10-08T05:02:39.610Z,936.75
2017-10-08T05:03:39.610Z,936.74
2017-10-08T05:04:39.609Z,936.73
2017-10-08T05:05:39.607Z,936.72
2017-10-08T05:06:39.608Z,936.76
2017-10-08T05:07:39.607Z,936.80
2017-10-08T05:08:39.606Z,936.81
2017-10-08T05:09:39.605Z,936.79
2017-10-08T05:10:39.606Z,936.75
2017-10-08T05:11:39.604Z,936.73
2017-10-08T05:12:39.604Z,936.76
2017-10-08T05:13:39.604Z,936.79
2017-10-08T05:14:39.603Z,936.88
2017-10-08T05:15:39.601Z,936.89
2017-10-08T05:16:39.601Z,936.84
2017-10-08T05:17:39.601Z,936.86
2017-10-08T05:18:39.602Z,936.85
2017-10-08T05:19:39.601Z,936.85
2017-10-08T05:20:39.620Z,936.87
2017-10-08T05:21:39.599Z,936.83
2017-10-08T05:22:39.600Z,936.86
2017-10-08T05:23:39.597Z,936.84
2017-10-08T05:24:39.596Z,936.83
2017-10-08T05:25:39.598Z,936.82
2017-10-08T05:26:39.596Z,936.83
2017-10-08T05:27:39.595Z,936.87
2017-10-08T05:28:39.598Z,936.81
2017-10-08T05:29:39.594Z,936.85
2017-10-08T05:30:39.594Z,936.86
2017-10-08T05:31:39.594Z,936.86
2017-10-08T05:32:39.592Z,936.87
2017-10-08T05:33:39.592Z,936.88
2017-10-08T05:34:39.591Z,936.85
2017-10-08T05:35:39.591Z,936.90
2017-10-08T05:36:39.590Z,936.86
2017-10-08T05:37:39.591Z,936.87
2017-10-08T05:38:39.590Z,936.83
2017-10-08T05:39:39.590Z,936.88
2017-10-08T05:40:39.589Z,936.86
2017-10-08T05:41:39.587Z,936.88
2017-10-08T05:42:39.588Z,936.92
2017-10-08T05:43:39.587Z,936.92
2017-10-08T05:44:39.587Z,937.00
2017-10-08T05:45:39.586Z,936.91
2017-10-08T05:46:39.587Z,936.91
2017-10-08T05:47:39.584Z,936.92
2017-10-08T05:48:39.584Z,936.92
2017-10-08T05:49:39.585Z,937.06
2017-10-08T05:50:39.583Z,937.03
2017-10-08T05:51:39.583Z,937.03
2017-10-08T05:52:39.583Z,937.07
2017-10-08T05:53:39.582Z,937.05
2017-10-08T05:54:39.582Z,937.01
2017-10-08T05:55:39.583Z,937.05
2017-10-08T05:56:39.582Z,937.12
2017-10-08T05:57:39.581Z,937.12
2017-10-08T05:58:39.582Z,937.06
2017-10-08T05:59:39.579Z,937.12
2017-10-08T06:00:39.580Z,937.08
2017-10-08T06:01:39.579Z,937.10
2017-10-08T06:02:39.578Z,937.08
2017-10-08T06:03:39.581Z,937.07
2017-10-08T06:04:39.579Z,937.17
2017-10-08T06:05:39.578Z,937.14
2017-10-08T06:06:39.576Z,937.17
2017-10-08T06:07:39.576Z,937.18
2017-10-08T06:08:39.575Z,937.13
2017-10-08T06:09:39.575Z,937.10
2017-10-08T06:10:39.576Z,937.16
2017-10-08T06:11:39.575Z,937.20
2017-10-08T06:12:39.577Z,937.22
2017-10-08T06:13:39.575Z,937.14
2017-10-08T06:14:39.576Z,937.15
2017-10-08T06:15:39.574Z,937.19
2017-10-08T06:16:39.574Z,937.23
2017-10-08T06:17:39.574Z,937.31
2017-10-08T06:18:39.575Z,937.28
2017-10-08T06:19:39.574Z,937.27
2017-10-08T06:20:39.573Z,937.24
2017-10-08T06:21:39.573Z,937.26
2017-10-08T06:22:39.574Z,937.31
2017-10-08T06:23:39.572Z,937.32
2017-10-08T06:24:39.575Z,937.36
2017-10-08T06:25:39.572Z,937.35
2017-10-08T06:26:39.574Z,937.34
2017-10-08T06:27:39.573Z,937.39
2017-10-08T06:28:39.571Z,937.39
2017-10-08T06:29:39.572Z,937.38
2017-10-08T06:30:39.571Z,937.41
2017-10-08T06:31:39.570Z,937.37
2017-10-08T06:32:39.570Z,937.43
2017-10-08T06:33:39.571Z,937.33
2017-10-08T06:34:39.570Z,937.38
2017-10-08T06:35:39.569Z,937.43
2017-10-08T06:36:39.570Z,937.40
2017-10-08T06:37:39.590Z,937.46
2017-10-08T06:38:39.571Z,937.46
2017-10-08T06:39:39.568Z,937.49
2017-10-08T06:40:39.568Z,937.52
2017-10-08T06:41:39.569Z,937.56
2017-10-08T06:42:39.568Z,937.51
2017-10-08T06:43:39.566Z,937.50
2017-10-08T06:44:39.568Z,937.55
2017-10-08T06:45:39.566Z,937.56
2017-10-08T06:46:39.568Z,937.50
2017-10-08T06:47:39.567Z,937.52
2017-10-08T06:48:39.567Z,937.59
2017-10-08T06:49:39.564Z,937.61
2017-10-08T06:50:39.566Z,937.58
2017-10-08T06:51:39.564Z,937.56
2017-10-08T06:52:39.567Z,937.56
2017-10-08T06:53:39.564Z,937.56
2017-10-08T06:54:39.562Z,937.51
2017-10-08T06:55:39.564Z,937.56
2017-10-08T06:56:39.564Z,937.58
2017-10-08T06:57:39.562Z,937.62
2017-10-08T06:58:39.562Z,937.60
2017-10-08T06:59:39.562Z,937.57
2017-10-08T07:00:39.561Z,937.61
2017-10-08T07:01:39.560Z,937.55
2017-10-08T07:02:39.561Z,937.57
2017-10-08T07:03:39.558Z,937.61
2017-10-08T07:04:39.558Z,937.57
2017-10-08T07:05:39.559Z,937.59
2017-10-08T07:06:39.558Z,937.61
2017-10-08T07:07:39.557Z,937.64
2017-10-08T07:08:39.557Z,937.65
2017-10-08T07:09:39.557Z,937.74
2017-10-08T07:10:39.555Z,937.69
2017-10-08T07:11:39.557Z,937.71
2017-10-08T07:12:39.555Z,937.71
2017-10-08T07:13:39.554Z,937.74
2017-10-08T07:14:39.554Z,937.76
2017-10-08T07:15:39.554Z,937.84
2017-10-08T07:16:39.553Z,937.79
2017-10-08T07:17:39.553Z,937.79
2017-10-08T07:18:39.552Z,937.85
2017-10-08T07:19:39.551Z,937.84
2017-10-08T07:20:39.553Z,937.83
2017-10-08T07:21:39.552Z,937.88
2017-10-08T07:22:39.551Z,937.84
2017-10-08T07:23:39.551Z,937.84
2017-10-08T07:24:39.550Z,937.91
2017-10-08T07:25:39.550Z,937.86
2017-10-08T07:26:39.550Z,937.91
2017-10-08T07:27:39.549Z,937.91
2017-10-08T07:28:39.551Z,937.91
2017-10-08T07:29:39.549Z,937.96
2017-10-08T07:30:39.550Z,937.94
2017-10-08T07:31:39.553Z,937.93
2017-10-08T07:32:39.548Z,937.94
2017-10-08T07:33:39.549Z,937.99
2017-10-08T07:34:39.549Z,937.97
2017-10-08T07:35:39.548Z,937.97
2017-10-08T07:36:39.548Z,937.95
2017-10-08T07:37:39.549Z,938.00
2017-10-08T07:38:39.549Z,938.00
2017-10-08T07:39:39.548Z,938.00
2017-10-08T07:40:39.547Z,938.01
2017-10-08T07:41:39.548Z,937.98
2017-10-08T07:42:39.549Z,938.02
2017-10-08T07:43:39.546Z,937.97
2017-10-08T07:44:39.546Z,937.98
2017-10-08T07:45:39.548Z,938.01
2017-10-08T07:46:39.547Z,938.03
2017-10-08T07:47:39.545Z,938.03
2017-10-08T07:48:39.549Z,938.03
2017-10-08T07:49:39.546Z,938.00
2017-10-08T07:50:39.546Z,937.98
2017-10-08T07:51:39.546Z,938.02
2017-10-08T07:52:39.545Z,938.02
2017-10-08T07:53:39.546Z,938.06
2017-10-08T07:54:39.546Z,938.07
2017-10-08T07:55:39.544Z,938.12
2017-10-08T07:56:39.545Z,938.03
2017-10-08T07:57:39.543Z,938.03
2017-10-08T07:58:39.544Z,938.07
2017-10-08T07:59:39.544Z,938.04
2017-10-08T08:00:39.543Z,938.08
2017-10-08T08:01:39.542Z,938.07
2017-10-08T08:02:39.544Z,938.08
2017-10-08T08:03:39.541Z,938.12
2017-10-08T08:04:39.542Z,938.11
2017-10-08T08:05:39.542Z,938.15
2017-10-08T08:06:39.541Z,938.18
2017-10-08T08:07:39.541Z,938.17
2017-10-08T08:08:39.542Z,938.17
2017-10-08T08:09:39.541Z,938.24
2017-10-08T08:10:39.541Z,938.20
2017-10-08T08:11:39.540Z,938.27
2017-10-08T08:12:39.542Z,938.27
2017-10-08T08:13:39.540Z,938.34
2017-10-08T08:14:39.540Z,938.25
2017-10-08T08:15:39.540Z,938.26
2017-10-08T08:16:39.539Z,938.31
2017-10-08T08:17:39.540Z,938.32
2017-10-08T08:18:39.540Z,938.29
2017-10-08T08:19:39.540Z,938.27
2017-10-08T08:20:39.540Z,938.33
2017-10-08T08:21:39.540Z,938.38
2017-10-08T08:22:39.541Z,938.25
2017-10-08T08:23:39.539Z,938.30
2017-10-08T08:24:39.559Z,938.31
2017-10-08T08:25:39.540Z,938.29
2017-10-08T08:26:39.540Z,938.34
2017-10-08T08:27:39.538Z,938.43
2017-10-08T08:28:39.540Z,938.43
2017-10-08T08:29:39.540Z,938.49
2017-10-08T08:30:39.542Z,938.41
2017-10-08T08:31:39.540Z,938.51
2017-10-08T08:32:39.542Z,938.47
2017-10-08T08:33:39.540Z,938.45
2017-10-08T08:34:39.542Z,938.36
2017-10-08T08:35:39.541Z,938.43
2017-10-08T08:36:39.541Z,938.50
2017-10-08T08:37:39.541Z,938.50
2017-10-08T08:38:39.541Z,938.50
2017-10-08T08:39:39.542Z,938.47
2017-10-08T08:40:39.545Z,938.49
2017-10-08T08:41:39.543Z,938.55
2017-10-08T08:42:39.544Z,938.52
2017-10-08T08:43:39.543Z,938.56
2017-10-08T08:44:39.544Z,938.54
2017-10-08T08:45:39.544Z,938.52
2017-10-08T08:46:39.543Z,938.50
2017-10-08T08:47:39.543Z,938.56
2017-10-08T08:48:39.543Z,938.55
2017-10-08T08:49:39.544Z,938.52
2017-10-08T08:50:39.547Z,938.56
2017-10-08T08:51:39.544Z,938.62
2017-10-08T08:52:39.543Z,938.57
2017-10-08T08:53:39.544Z,938.61
2017-10-08T08:54:39.544Z,938.64
2017-10-08T08:55:39.543Z,938.65
2017-10-08T08:56:39.544Z,938.67
2017-10-08T08:57:39.544Z,938.71
2017-10-08T08:58:39.544Z,938.77
2017-10-08T08:59:39.545Z,938.69
2017-10-08T09:00:39.544Z,938.70
2017-10-08T09:01:39.545Z,938.68
2017-10-08T09:02:39.546Z,938.70
2017-10-08T09:03:39.545Z,938.65
2017-10-08T09:04:39.546Z,938.78
2017-10-08T09:05:39.546Z,938.68
2017-10-08T09:06:39.569Z,938.68
2017-10-08T09:07:39.546Z,938.74
2017-10-08T09:08:39.547Z,938.65
2017-10-08T09:09:39.546Z,938.81
2017-10-08T09:10:39.547Z,938.74
2017-10-08T09:11:39.547Z,938.76
2017-10-08T09:12:39.547Z,938.80
2017-10-08T09:13:39.548Z,938.73
2017-10-08T09:14:39.549Z,938.75
2017-10-08T09:15:39.549Z,938.75
2017-10-08T09:16:39.549Z,938.73
2017-10-08T09:17:39.550Z,938.79
2017-10-08T09:18:39.551Z,938.82
2017-10-08T09:19:39.550Z,938.75
2017-10-08T09:20:39.549Z,938.80
2017-10-08T09:21:39.551Z,938.84
2017-10-08T09:22:39.550Z,938.81
2017-10-08T09:23:39.551Z,938.77
2017-10-08T09:24:39.552Z,938.76
2017-10-08T09:25:39.551Z,938.81
2017-10-08T09:26:39.553Z,938.75
2017-10-08T09:27:39.551Z,938.83
2017-10-08T09:28:39.551Z,938.80
2017-10-08T09:29:39.553Z,938.81
2017-10-08T09:30:39.552Z,938.82
2017-10-08T09:31:39.553Z,938.83
2017-10-08T09:32:39.555Z,938.89
2017-10-08T09:33:39.553Z,938.84
2017-10-08T09:34:39.555Z,938.93
2017-10-08T09:35:39.553Z,938.88
2017-10-08T09:36:39.555Z,938.90
2017-10-08T09:37:39.554Z,938.89
2017-10-08T09:38:39.556Z,938.89
2017-10-08T09:39:39.555Z,938.95
2017-10-08T09:40:39.556Z,938.91
2017-10-08T09:41:39.557Z,938.92
2017-10-08T09:42:39.558Z,938.91
2017-10-08T09:43:39.556Z,938.88
2017-10-08T09:44:39.558Z,938.90
2017-10-08T09:45:39.557Z,938.85
2017-10-08T09:46:39.557Z,938.88
2017-10-08T09:47:39.560Z,938.91
2017-10-08T09:48:39.560Z,938.90
2017-10-08T09:49:39.559Z,938.87
2017-10-08T09:50:39.559Z,938.88
2017-10-08T09:51:39.559Z,938.88
2017-10-08T09:52:39.560Z,938.90
2017-10-08T09:53:39.561Z,938.91
2017-10-08T09:54:39.565Z,938.93
2017-10-08T09:55:39.561Z,938.97
2017-10-08T09:56:39.561Z,938.97
2017-10-08T09:57:39.564Z,938.94
2017-10-08T09:58:39.564Z,938.95
2017-10-08T09:59:39.562Z,939.00
2017-10-08T10:00:39.565Z,938.97
2017-10-08T10:01:39.563Z,938.90
2017-10-08T10:02:39.564Z,938.95
2017-10-08T10:03:39.564Z,938.88
2017-10-08T10:04:39.566Z,939.00
2017-10-08T10:05:39.565Z,938.97
2017-10-08T10:06:39.566Z,938.98
2017-10-08T10:07:39.566Z,939.00
2017-10-08T10:08:39.566Z,938.94
2017-10-08T10:09:39.566Z,938.99
2017-10-08T10:10:39.569Z,939.00
2017-10-08T10:11:39.566Z,939.01
2017-10-08T10:12:39.568Z,939.07
2017-10-08T10:13:39.569Z,939.04
2017-10-08T10:14:39.570Z,939.08
2017-10-08T10:15:39.569Z,939.09
2017-10-08T10:16:39.569Z,939.11
2017-10-08T10:17:39.571Z,939.17
2017-10-08T10:18:39.574Z,939.15
2017-10-08T10:19:39.572Z,939.14
2017-10-08T10:20:39.573Z,939.16
2017-10-08T10:21:39.573Z,939.22
2017-10-08T10:22:39.575Z,939.19
2017-10-08T10:23:39.574Z,939.16
2017-10-08T10:24:39.574Z,939.18
2017-10-08T10:25:39.577Z,939.20
2017-10-08T10:26:39.576Z,939.16
2017-10-08T10:27:39.576Z,939.19
2017-10-08T10:28:39.578Z,939.19
2017-10-08T10:29:39.578Z,939.24
2017-10-08T10:30:39.579Z,939.21
2017-10-08T10:31:39.578Z,939.20
2017-10-08T10:32:39.580Z,939.22
2017-10-08T10:33:39.580Z,939.20
2017-10-08T10:34:39.580Z,939.18
2017-10-08T10:35:39.581Z,939.20
2017-10-08T10:36:39.583Z,939.18
2017-10-08T10:37:39.583Z,939.20
2017-10-08T10:38:39.584Z,939.21
2017-10-08T10:39:39.584Z,939.17
2017-10-08T10:40:39.584Z,939.20
2017-10-08T10:41:39.585Z,939.21
2017-10-08T10:42:39.586Z,939.22
2017-10-08T10:43:39.587Z,939.22
2017-10-08T10:44:39.588Z,939.25
2017-10-08T10:45:39.589Z,939.21
2017-10-08T10:46:39.589Z,939.24
2017-10-08T10:47:39.590Z,939.28
2017-10-08T10:48:39.591Z,939.26
2017-10-08T10:49:39.592Z,939.29
2017-10-08T10:50:39.593Z,939.23
2017-10-08T10:51:39.596Z,939.33
2017-10-08T10:52:39.595Z,939.24
2017-10-08T10:53:39.598Z,939.26
2017-10-08T10:54:39.596Z,939.26
2017-10-08T10:55:39.597Z,939.23
2017-10-08T10:56:39.598Z,939.29
2017-10-08T10:57:39.614Z,939.27
2017-10-08T10:58:39.600Z,939.29
2017-10-08T10:59:39.601Z,939.28
2017-10-08T11:00:39.602Z,939.30
2017-10-08T11:01:39.603Z,939.28
2017-10-08T11:02:39.605Z,939.34
2017-10-08T11:03:39.604Z,939.26
2017-10-08T11:04:39.606Z,939.30
2017-10-08T11:05:39.607Z,939.32
2017-10-08T11:06:39.610Z,939.31
2017-10-08T11:07:39.608Z,939.33
2017-10-08T11:08:39.609Z,939.29
2017-10-08T11:09:39.610Z,939.28
2017-10-08T11:10:39.613Z,939.28
2017-10-08T11:11:39.613Z,939.31
2017-10-08T11:12:39.613Z,939.30
2017-10-08T11:13:39.614Z,939.30
2017-10-08T11:14:39.615Z,939.31
2017-10-08T11:15:39.616Z,939.27
2017-10-08T11:16:39.617Z,939.34
2017-10-08T11:17:39.619Z,939.27
2017-10-08T11:18:39.621Z,939.30
2017-10-08T11:19:39.620Z,939.29
2017-10-08T11:20:39.621Z,939.32
2017-10-08T11:21:39.623Z,939.28
2017-10-08T11:22:39.624Z,939.29
2017-10-08T11:23:39.624Z,939.29
2017-10-08T11:24:39.626Z,939.30
2017-10-08T11:25:39.627Z,939.31
2017-10-08T11:26:39.627Z,939.30
2017-10-08T11:27:39.628Z,939.31
2017-10-08T11:28:39.629Z,939.31
2017-10-08T11:29:39.631Z,939.28
2017-10-08T11:30:39.633Z,939.26
2017-10-08T11:31:39.632Z,939.31
2017-10-08T11:32:39.633Z,939.31
2017-10-08T11:33:39.634Z,939.29
2017-10-08T11:34:39.638Z,939.26
2017-10-08T11:35:39.637Z,939.30
2017-10-08T11:36:39.639Z,939.25
2017-10-08T11:37:39.645Z,939.29
2017-10-08T11:38:39.644Z,939.33
2017-10-08T11:39:39.643Z,939.31
2017-10-08T11:40:39.645Z,939.33
2017-10-08T11:41:39.646Z,939.32
2017-10-08T11:42:39.647Z,939.30
2017-10-08T11:43:39.648Z,939.29
2017-10-08T11:44:39.649Z,939.26
2017-10-08T11:45:39.651Z,939.24
2017-10-08T11:46:39.653Z,939.23
2017-10-08T11:47:39.652Z,939.25
2017-10-08T11:48:39.654Z,939.22
2017-10-08T11:49:39.655Z,939.25
2017-10-08T11:50:39.658Z,939.24
2017-10-08T11:51:39.661Z,939.22
2017-10-08T11:52:39.660Z,939.29
2017-10-08T11:53:39.661Z,939.27
2017-10-08T11:54:39.661Z,939.30
2017-10-08T11:55:39.662Z,939.26
2017-10-08T11:56:39.663Z,939.28
2017-10-08T11:57:39.665Z,939.20
2017-10-08T11:58:39.666Z,939.20
2017-10-08T11:59:39.667Z,939.19
2017-10-08T12:00:39.670Z,939.19
2017-10-08T12:01:39.671Z,939.18
2017-10-08T12:02:39.672Z,939.24
2017-10-08T12:03:39.672Z,939.20
2017-10-08T12:04:39.674Z,939.24
2017-10-08T12:05:39.675Z,939.27
2017-10-08T12:06:39.677Z,939.25
2017-10-08T12:07:39.676Z,939.26
2017-10-08T12:08:39.679Z,939.22
2017-10-08T12:09:39.679Z,939.18
2017-10-08T12:10:39.682Z,939.22
2017-10-08T12:11:39.681Z,939.27
2017-10-08T12:12:39.682Z,939.24
2017-10-08T12:13:39.684Z,939.17
2017-10-08T12:14:39.686Z,939.19
2017-10-08T12:15:39.685Z,939.19
2017-10-08T12:16:39.688Z,939.30
2017-10-08T12:17:39.690Z,939.22
2017-10-08T12:18:39.692Z,939.26
2017-10-08T12:19:39.693Z,939.19
2017-10-08T12:20:39.695Z,939.17
2017-10-08T12:21:39.696Z,939.06
2017-10-08T12:22:39.696Z,939.10
2017-10-08T12:23:39.698Z,939.08
2017-10-08T12:24:39.700Z,939.11
2017-10-08T12:25:39.700Z,939.06
2017-10-08T12:26:39.701Z,939.11
2017-10-08T12:27:39.704Z,939.06
2017-10-08T12:28:39.705Z,939.06